Terminal Aerodrome Forecast
Issued by NWS Green Bay, WI

Home | Current Version | Previous Version | Graphics & Text | Print | Product List | Glossary On
Versions: 1 2 3 4 5 6 7 8 9 10 11 12 13 14 15 16 17 18 19 20 21 22 23 24 25 26 27 28 29 30 31 32 33 34 35 36 37 38 39 40 41 42 43
000
FTUS43 KGRB 052330
TAFGRB
TAF
KGRB 052330Z 0600/0624 18007KT P6SM FEW050 BKN250
     FM060600 18004KT 5SM BR FEW140 SCT250 WS015/22030KT
     FM061400 18013G20KT P6SM SCT040 BKN140 PROB30 0620/0624 4SM
      -TSRA BR BKN040CB=

USA.gov is the U.S. government's official web portal to all federal, state and local government web resources and services.